createdAt,value
2018-09-15T00:02:27.982Z,16.82
2018-09-15T00:04:58.757Z,16.82
2018-09-15T00:07:29.752Z,16.82
2018-09-15T00:10:00.493Z,16.83
2018-09-15T00:12:32.121Z,16.85
2018-09-15T00:15:02.614Z,16.84
2018-09-15T00:17:33.714Z,16.85
2018-09-15T00:20:04.779Z,16.78
2018-09-15T00:22:35.670Z,16.85
2018-09-15T00:25:07.000Z,16.85
2018-09-15T00:27:37.744Z,16.86
2018-09-15T00:30:08.578Z,16.87
2018-09-15T00:32:39.628Z,16.88
2018-09-15T00:35:10.520Z,16.89
2018-09-15T00:37:41.474Z,16.91
2018-09-15T00:40:13.060Z,16.94
2018-09-15T00:42:43.759Z,16.94
2018-09-15T00:45:14.962Z,16.93
2018-09-15T00:47:45.843Z,16.93
2018-09-15T00:50:16.689Z,16.93
2018-09-15T00:52:47.565Z,16.94
2018-09-15T00:55:18.755Z,16.92
2018-09-15T00:57:49.680Z,16.91
2018-09-15T01:00:21.649Z,16.91
2018-09-15T01:02:51.468Z,16.90
2018-09-15T01:05:23.012Z,16.91
2018-09-15T01:07:53.847Z,16.89
2018-09-15T01:10:24.616Z,16.88
2018-09-15T01:12:55.604Z,16.88
2018-09-15T01:15:26.799Z,16.87
2018-09-15T01:17:57.650Z,16.88
2018-09-15T01:20:28.510Z,16.89
2018-09-15T01:22:59.880Z,16.89
2018-09-15T01:25:30.688Z,16.88
2018-09-15T01:28:01.561Z,16.90
2018-09-15T01:30:33.184Z,16.87
2018-09-15T01:33:04.015Z,16.89
2018-09-15T01:35:34.737Z,16.85
2018-09-15T01:38:05.889Z,16.85
2018-09-15T01:40:36.866Z,16.84
2018-09-15T01:43:07.723Z,16.83
2018-09-15T01:45:38.900Z,16.81
2018-09-15T01:48:09.898Z,16.83
2018-09-15T01:50:40.758Z,16.81
2018-09-15T01:53:11.632Z,16.80
2018-09-15T01:55:42.766Z,16.77
2018-09-15T01:58:13.752Z,16.76
2018-09-15T02:00:44.588Z,16.74
2018-09-15T02:03:15.545Z,16.73
2018-09-15T02:05:46.968Z,16.73
2018-09-15T02:08:17.925Z,16.72
2018-09-15T02:10:48.718Z,16.73
2018-09-15T02:13:19.581Z,16.74
2018-09-15T02:15:50.533Z,16.73
2018-09-15T02:18:21.557Z,16.74
2018-09-15T02:20:51.700Z,16.74
2018-09-15T02:23:22.675Z,16.75
2018-09-15T02:25:53.416Z,16.75
2018-09-15T02:28:24.863Z,16.74
2018-09-15T02:30:55.616Z,16.74
2018-09-15T02:33:26.664Z,16.72
2018-09-15T02:35:57.471Z,16.69
2018-09-15T02:38:28.912Z,16.67
2018-09-15T02:40:59.725Z,16.63
2018-09-15T02:43:30.632Z,16.61
2018-09-15T02:46:01.378Z,16.60
2018-09-15T02:48:32.742Z,16.57
2018-09-15T02:51:09.595Z,16.47
2018-09-15T02:53:39.705Z,16.52
2018-09-15T02:56:09.407Z,16.50
2018-09-15T02:58:39.303Z,16.49
2018-09-15T03:01:09.704Z,16.46
2018-09-15T03:03:39.505Z,16.43
2018-09-15T03:06:09.794Z,16.41
2018-09-15T03:08:40.710Z,16.40
2018-09-15T03:11:11.581Z,16.40
2018-09-15T03:13:42.564Z,16.39
2018-09-15T03:16:13.420Z,16.39
2018-09-15T03:18:44.921Z,16.40
2018-09-15T03:21:15.696Z,16.40
2018-09-15T03:23:46.625Z,16.40
2018-09-15T03:26:17.461Z,16.40
2018-09-15T03:28:49.045Z,16.39
2018-09-15T03:31:20.367Z,16.38
2018-09-15T03:33:50.956Z,16.35
2018-09-15T03:36:21.772Z,16.33
2018-09-15T03:38:52.849Z,16.31
2018-09-15T03:41:23.682Z,16.31
2018-09-15T03:43:54.699Z,16.30
2018-09-15T03:46:25.486Z,16.29
2018-09-15T03:48:56.942Z,16.28
2018-09-15T03:51:27.774Z,16.27
2018-09-15T03:53:58.919Z,16.26
2018-09-15T03:56:29.710Z,16.26
2018-09-15T03:59:00.684Z,16.26
2018-09-15T04:01:31.533Z,16.25
2018-09-15T04:04:02.872Z,16.27
2018-09-15T04:06:34.118Z,16.28
2018-09-15T04:09:05.057Z,16.27
2018-09-15T04:11:35.592Z,16.28
2018-09-15T04:14:06.660Z,16.29
2018-09-15T04:16:37.541Z,16.28
2018-09-15T04:19:08.978Z,16.28
2018-09-15T04:21:39.610Z,16.28
2018-09-15T04:24:19.071Z,16.26
2018-09-15T04:26:49.341Z,16.25
2018-09-15T04:29:19.385Z,16.24
2018-09-15T04:31:49.615Z,16.26
2018-09-15T04:34:19.425Z,16.25
2018-09-15T04:36:49.285Z,16.26
2018-09-15T04:39:19.485Z,16.25
2018-09-15T04:41:49.425Z,16.26
2018-09-15T04:44:19.192Z,16.23
2018-09-15T04:46:49.808Z,16.26
2018-09-15T04:49:20.678Z,16.24
2018-09-15T04:51:51.478Z,16.25
2018-09-15T04:54:22.833Z,16.22
2018-09-15T04:56:53.670Z,16.21
2018-09-15T04:59:24.599Z,16.21
2018-09-15T05:01:55.760Z,16.19
2018-09-15T05:04:27.231Z,16.17
2018-09-15T05:06:57.707Z,16.16
2018-09-15T05:09:29.675Z,16.15
2018-09-15T05:11:59.475Z,16.15
2018-09-15T05:14:30.991Z,16.15
2018-09-15T05:17:01.658Z,16.14
2018-09-15T05:19:32.747Z,16.13
2018-09-15T05:22:03.570Z,16.13
2018-09-15T05:24:34.998Z,16.12
2018-09-15T05:27:05.738Z,16.10
2018-09-15T05:29:36.713Z,16.11
2018-09-15T05:32:08.132Z,16.11
2018-09-15T05:34:38.802Z,16.12
2018-09-15T05:37:09.593Z,16.15
2018-09-15T05:39:40.674Z,16.17
2018-09-15T05:42:11.480Z,16.22
2018-09-15T05:44:42.956Z,16.28
2018-09-15T05:47:13.782Z,16.33
2018-09-15T05:49:44.791Z,16.37
2018-09-15T05:52:15.589Z,16.37
2018-09-15T05:54:46.991Z,16.42
2018-09-15T05:57:18.108Z,16.42
2018-09-15T05:59:48.903Z,16.43
2018-09-15T06:02:19.703Z,16.46
2018-09-15T06:04:50.667Z,16.47
2018-09-15T06:07:23.536Z,16.47
2018-09-15T06:09:53.452Z,16.47
2018-09-15T06:12:23.851Z,16.49
2018-09-15T06:14:54.920Z,16.53
2018-09-15T06:17:25.808Z,16.59
2018-09-15T06:19:56.908Z,16.63
2018-09-15T06:22:28.122Z,16.66
2018-09-15T06:24:58.928Z,16.71
2018-09-15T06:27:29.801Z,16.76
2018-09-15T06:30:00.796Z,16.84
2018-09-15T06:32:31.712Z,16.86
2018-09-15T06:35:02.573Z,16.85
2018-09-15T06:37:33.945Z,16.80
2018-09-15T06:40:04.943Z,16.83
2018-09-15T06:42:35.912Z,16.82
2018-09-15T06:45:08.188Z,16.82
2018-09-15T06:47:38.165Z,16.87
2018-09-15T06:50:08.750Z,16.89
2018-09-15T06:52:39.912Z,16.89
2018-09-15T06:55:10.939Z,16.94
2018-09-15T06:57:42.121Z,16.84
2018-09-15T07:00:12.905Z,16.97
2018-09-15T07:02:43.941Z,16.96
2018-09-15T07:05:14.752Z,16.92
2018-09-15T07:07:45.992Z,16.88
2018-09-15T07:10:16.970Z,16.86
2018-09-15T07:12:47.832Z,16.88
2018-09-15T07:15:18.665Z,16.89
2018-09-15T07:17:49.742Z,16.95
2018-09-15T07:20:20.630Z,17.01
2018-09-15T07:22:51.576Z,17.01
2018-09-15T07:25:23.094Z,17.05
2018-09-15T07:27:53.801Z,17.13
2018-09-15T07:30:24.642Z,17.20
2018-09-15T07:32:55.705Z,17.27
2018-09-15T07:35:26.529Z,17.38
2018-09-15T07:37:57.866Z,17.48
2018-09-15T07:40:28.763Z,17.60
2018-09-15T07:43:00.144Z,17.72
2018-09-15T07:45:30.970Z,17.68
2018-09-15T07:48:01.819Z,17.69
2018-09-15T07:50:32.654Z,17.53
2018-09-15T07:53:04.527Z,17.51
2018-09-15T07:55:34.418Z,17.51
2018-09-15T07:58:05.869Z,17.52
2018-09-15T08:00:36.879Z,17.49
2018-09-15T08:03:13.811Z,17.55
2018-09-15T08:05:43.607Z,17.58
2018-09-15T08:08:13.567Z,17.64
2018-09-15T08:10:43.815Z,17.70
2018-09-15T08:13:13.664Z,17.75
2018-09-15T08:15:43.590Z,17.79
2018-09-15T08:18:13.611Z,17.88
2018-09-15T08:20:44.597Z,17.93
2018-09-15T08:23:15.434Z,17.99
2018-09-15T08:25:46.873Z,18.03
2018-09-15T08:28:18.258Z,18.10
2018-09-15T08:30:48.918Z,18.13
2018-09-15T08:33:19.714Z,18.18
2018-09-15T08:35:50.739Z,18.25
2018-09-15T08:38:21.976Z,18.34
2018-09-15T08:40:52.948Z,18.34
2018-09-15T08:43:23.856Z,18.51
2018-09-15T08:45:55.374Z,18.68
2018-09-15T08:48:26.010Z,18.85
2018-09-15T08:50:56.612Z,18.95
2018-09-15T08:53:29.560Z,19.06
2018-09-15T08:55:59.358Z,18.99
2018-09-15T08:58:29.901Z,19.06
2018-09-15T09:01:00.774Z,19.22
2018-09-15T09:03:31.628Z,19.31
2018-09-15T09:06:02.604Z,19.43
2018-09-15T09:08:33.521Z,19.58
2018-09-15T09:11:04.680Z,19.70
2018-09-15T09:13:35.571Z,19.86
2018-09-15T09:16:06.712Z,19.89
2018-09-15T09:18:37.763Z,19.95
2018-09-15T09:21:08.709Z,20.00
2018-09-15T09:23:39.553Z,20.05
2018-09-15T09:26:10.481Z,20.16
2018-09-15T09:28:42.097Z,20.35
2018-09-15T09:31:12.940Z,20.50
2018-09-15T09:33:43.791Z,20.57
2018-09-15T09:36:23.100Z,20.67
2018-09-15T09:38:53.422Z,20.84
2018-09-15T09:41:23.162Z,20.82
2018-09-15T09:43:53.445Z,20.63
2018-09-15T09:46:23.328Z,20.74
2018-09-15T09:48:53.142Z,20.90
2018-09-15T09:51:23.005Z,21.02
2018-09-15T09:53:52.898Z,21.15
2018-09-15T09:56:24.244Z,21.29
2018-09-15T09:58:54.191Z,21.40
2018-09-15T10:01:59.964Z,21.57
2018-09-15T10:04:31.355Z,21.51
2018-09-15T10:07:01.229Z,21.60
2018-09-15T10:09:31.192Z,21.71
2018-09-15T10:12:01.009Z,21.81
2018-09-15T10:14:30.751Z,21.95
2018-09-15T10:17:01.742Z,22.13
2018-09-15T10:19:31.700Z,22.10
2018-09-15T10:22:01.939Z,22.18
2018-09-15T10:24:32.649Z,21.96
2018-09-15T10:27:02.869Z,21.93
2018-09-15T10:29:32.686Z,21.95
2018-09-15T10:32:02.628Z,21.92
2018-09-15T10:34:32.769Z,22.01
2018-09-15T10:37:02.716Z,22.09
2018-09-15T10:39:33.054Z,22.20
2018-09-15T10:42:02.826Z,22.01
2018-09-15T10:44:32.774Z,22.27
2018-09-15T10:47:02.750Z,22.57
2018-09-15T10:49:32.701Z,22.63
2018-09-15T10:52:02.833Z,22.94
2018-09-15T10:54:32.616Z,22.98
2018-09-15T10:57:03.755Z,23.32
2018-09-15T10:59:33.739Z,23.44
2018-09-15T11:02:03.844Z,23.54
2018-09-15T11:04:33.659Z,23.46
2018-09-15T11:07:03.669Z,23.13
2018-09-15T11:09:36.647Z,23.13
2018-09-15T11:12:06.710Z,23.28
2018-09-15T11:14:36.597Z,22.86
2018-09-15T11:17:06.857Z,23.05
2018-09-15T11:19:36.667Z,23.22
2018-09-15T11:22:06.744Z,22.89
2018-09-15T11:24:36.531Z,22.70
2018-09-15T11:27:06.672Z,22.78
2018-09-15T11:29:45.612Z,22.47
2018-09-15T11:32:15.482Z,22.76
2018-09-15T11:34:45.604Z,22.71
2018-09-15T11:37:15.518Z,22.75
2018-09-15T11:39:45.739Z,23.20
2018-09-15T11:42:15.892Z,23.35
2018-09-15T11:44:45.717Z,23.58
2018-09-15T11:47:15.461Z,23.40
2018-09-15T11:49:45.361Z,23.24
2018-09-15T11:52:15.165Z,22.88
2018-09-15T11:54:45.758Z,22.53
2018-09-15T11:57:15.590Z,22.14
2018-09-15T11:59:45.402Z,22.16
2018-09-15T12:02:15.321Z,22.14
2018-09-15T12:04:45.142Z,22.25
2018-09-15T12:07:15.321Z,22.62
2018-09-15T12:09:45.660Z,23.09
2018-09-15T12:12:15.518Z,23.30
2018-09-15T12:14:45.462Z,23.50
2018-09-15T12:17:16.770Z,23.81
2018-09-15T12:19:47.705Z,23.87
2018-09-15T12:22:18.862Z,23.52
2018-09-15T12:24:49.740Z,22.90
2018-09-15T12:27:20.493Z,22.68
2018-09-15T12:29:52.025Z,22.56
2018-09-15T12:32:22.866Z,22.62
2018-09-15T12:34:53.743Z,22.51
2018-09-15T12:37:24.544Z,22.63
2018-09-15T12:39:55.676Z,22.83
2018-09-15T12:42:26.613Z,23.30
2018-09-15T12:44:57.543Z,23.71
2018-09-15T12:47:28.529Z,23.88
2018-09-15T12:49:59.486Z,24.04
2018-09-15T12:52:30.781Z,23.38
2018-09-15T12:55:01.974Z,22.58
2018-09-15T12:57:32.728Z,22.60
2018-09-15T13:00:03.676Z,22.42
2018-09-15T13:02:34.450Z,22.60
2018-09-15T13:05:05.656Z,23.10
2018-09-15T13:07:36.430Z,23.31
2018-09-15T13:10:08.267Z,23.41
2018-09-15T13:12:44.148Z,23.43
2018-09-15T13:15:14.176Z,23.61
2018-09-15T13:17:44.468Z,23.43
2018-09-15T13:20:14.428Z,23.46
2018-09-15T13:22:44.345Z,23.62
2018-09-15T13:25:14.071Z,23.45
2018-09-15T13:27:44.799Z,23.40
2018-09-15T13:30:15.648Z,23.12
2018-09-15T13:32:46.657Z,23.25
2018-09-15T13:35:17.537Z,23.42
2018-09-15T13:37:48.900Z,23.20
2018-09-15T13:40:19.949Z,23.27
2018-09-15T13:42:50.751Z,23.07
2018-09-15T13:45:21.734Z,22.95
2018-09-15T13:47:52.958Z,23.00
2018-09-15T13:50:23.649Z,23.28
2018-09-15T13:52:54.585Z,23.25
2018-09-15T13:55:25.475Z,23.43
2018-09-15T13:57:56.484Z,23.38
2018-09-15T14:00:27.693Z,23.36
2018-09-15T14:02:58.462Z,23.40
2018-09-15T14:05:29.939Z,23.52
2018-09-15T14:08:00.787Z,23.33
2018-09-15T14:10:32.071Z,23.14
2018-09-15T14:13:03.260Z,23.34
2018-09-15T14:15:33.772Z,23.66
2018-09-15T14:18:04.596Z,23.65
2018-09-15T14:20:35.487Z,23.71
2018-09-15T14:23:06.536Z,23.48
2018-09-15T14:25:37.411Z,23.53
2018-09-15T14:28:08.660Z,23.62
2018-09-15T14:30:39.455Z,23.72
2018-09-15T14:33:10.438Z,23.61
2018-09-15T14:35:41.487Z,23.42
2018-09-15T14:38:12.766Z,23.43
2018-09-15T14:40:43.605Z,23.64
2018-09-15T14:43:14.429Z,23.81
2018-09-15T14:45:53.888Z,23.84
2018-09-15T14:48:24.000Z,24.01
2018-09-15T14:50:54.292Z,23.99
2018-09-15T14:53:24.103Z,24.06
2018-09-15T14:55:53.848Z,23.72
2018-09-15T14:58:24.106Z,23.55
2018-09-15T15:00:53.942Z,23.56
2018-09-15T15:03:24.131Z,23.62
2018-09-15T15:05:53.901Z,23.44
2018-09-15T15:08:24.863Z,23.08
2018-09-15T15:10:55.610Z,23.20
2018-09-15T15:13:29.633Z,23.02
2018-09-15T15:15:59.541Z,23.17
2018-09-15T15:18:29.396Z,22.99
2018-09-15T15:20:59.726Z,22.92
2018-09-15T15:23:30.729Z,22.80
2018-09-15T15:26:01.687Z,22.78
2018-09-15T15:28:32.699Z,22.73
2018-09-15T15:31:03.619Z,22.59
2018-09-15T15:33:34.465Z,22.66
2018-09-15T15:36:05.713Z,22.46
2018-09-15T15:38:36.515Z,22.61
2018-09-15T15:41:07.522Z,22.69
2018-09-15T15:43:38.523Z,22.61
2018-09-15T15:46:10.292Z,22.66
2018-09-15T15:48:40.868Z,22.54
2018-09-15T15:51:11.603Z,22.61
2018-09-15T15:53:42.494Z,22.78
2018-09-15T15:56:13.517Z,22.78
2018-09-15T15:58:45.018Z,22.56
2018-09-15T16:01:15.973Z,22.59
2018-09-15T16:03:47.161Z,22.56
2018-09-15T16:06:17.605Z,22.29
2018-09-15T16:08:48.548Z,22.13
2018-09-15T16:11:19.848Z,22.19
2018-09-15T16:13:51.077Z,22.04
2018-09-15T16:16:21.789Z,22.09
2018-09-15T16:18:52.719Z,22.01
2018-09-15T16:21:23.443Z,22.06
2018-09-15T16:23:55.332Z,22.10
2018-09-15T16:26:25.733Z,22.07
2018-09-15T16:28:56.510Z,22.07
2018-09-15T16:31:27.074Z,21.91
2018-09-15T16:33:57.735Z,21.80
2018-09-15T16:36:28.461Z,21.73
2018-09-15T16:39:00.116Z,21.30
2018-09-15T16:41:30.681Z,21.34
2018-09-15T16:44:01.454Z,21.36
2018-09-15T16:46:32.706Z,21.39
2018-09-15T16:49:03.558Z,21.36
2018-09-15T16:51:34.504Z,21.34
2018-09-15T16:54:06.160Z,21.18
2018-09-15T16:56:37.437Z,20.96
2018-09-15T16:59:07.795Z,20.99
2018-09-15T17:01:39.302Z,20.66
2018-09-15T17:04:09.987Z,20.70
2018-09-15T17:06:40.599Z,20.68
2018-09-15T17:09:12.776Z,20.66
2018-09-15T17:11:42.518Z,20.65
2018-09-15T17:14:13.770Z,20.65
2018-09-15T17:16:44.610Z,20.59
2018-09-15T17:19:15.484Z,20.56
2018-09-15T17:21:47.742Z,20.53
2018-09-15T17:24:17.765Z,20.45
2018-09-15T17:26:48.695Z,20.42
2018-09-15T17:29:19.449Z,20.39
2018-09-15T17:31:50.081Z,20.34
2018-09-15T17:34:20.721Z,20.29
2018-09-15T17:36:51.565Z,20.24
2018-09-15T17:39:22.330Z,20.19
2018-09-15T17:41:53.794Z,20.14
2018-09-15T17:44:24.618Z,19.99
2018-09-15T17:46:55.488Z,19.99
2018-09-15T17:49:26.697Z,19.92
2018-09-15T17:51:57.519Z,19.86
2018-09-15T17:54:28.397Z,19.84
2018-09-15T17:56:59.825Z,19.79
2018-09-15T17:59:30.708Z,19.72
2018-09-15T18:02:02.053Z,19.68
2018-09-15T18:04:32.696Z,19.61
2018-09-15T18:07:03.754Z,19.56
2018-09-15T18:09:34.621Z,19.51
2018-09-15T18:12:06.066Z,19.46
2018-09-15T18:14:36.913Z,19.40
2018-09-15T18:17:07.790Z,19.34
2018-09-15T18:19:38.564Z,19.27
2018-09-15T18:22:09.582Z,19.22
2018-09-15T18:24:40.718Z,19.16
2018-09-15T18:27:11.559Z,19.13
2018-09-15T18:29:42.867Z,19.04
2018-09-15T18:32:12.708Z,18.96
2018-09-15T18:34:43.431Z,18.91
2018-09-15T18:37:14.768Z,18.80
2018-09-15T18:39:44.768Z,18.70
2018-09-15T18:42:15.555Z,18.60
2018-09-15T18:44:46.488Z,18.49
2018-09-15T18:47:17.405Z,18.41
2018-09-15T18:49:48.689Z,18.30
2018-09-15T18:52:19.429Z,18.23
2018-09-15T18:54:57.248Z,18.15
2018-09-15T18:57:27.149Z,18.08
2018-09-15T18:59:57.609Z,18.03
2018-09-15T19:02:27.424Z,18.00
2018-09-15T19:04:57.247Z,17.90
2018-09-15T19:07:27.588Z,17.84
2018-09-15T19:09:57.383Z,17.79
2018-09-15T19:12:28.005Z,17.75
2018-09-15T19:14:58.633Z,17.73
2018-09-15T19:17:29.759Z,17.69
2018-09-15T19:20:00.745Z,17.63
2018-09-15T19:22:31.485Z,17.54
2018-09-15T19:25:02.954Z,17.52
2018-09-15T19:27:33.727Z,17.46
2018-09-15T19:30:05.025Z,17.42
2018-09-15T19:32:35.720Z,17.34
2018-09-15T19:35:06.770Z,17.23
2018-09-15T19:37:37.616Z,17.17
2018-09-15T19:40:09.304Z,17.15
2018-09-15T19:42:39.897Z,17.14
2018-09-15T19:45:10.835Z,17.09
2018-09-15T19:47:41.682Z,17.06
2018-09-15T19:50:12.611Z,17.00
2018-09-15T19:52:43.469Z,16.96
2018-09-15T19:55:14.440Z,16.92
2018-09-15T19:57:45.676Z,16.84
2018-09-15T20:00:16.806Z,16.81
2018-09-15T20:02:47.644Z,16.80
2018-09-15T20:05:18.586Z,16.77
2018-09-15T20:07:49.613Z,16.74
2018-09-15T20:10:20.462Z,16.72
2018-09-15T20:12:52.175Z,16.68
2018-09-15T20:15:23.796Z,16.66
2018-09-15T20:17:51.929Z,16.63
2018-09-15T20:20:23.419Z,16.62
2018-09-15T20:22:56.120Z,16.56
2018-09-15T20:25:26.877Z,16.55
2018-09-15T20:28:00.408Z,16.49
2018-09-15T20:30:30.336Z,16.45
2018-09-15T20:33:00.328Z,16.39
2018-09-15T20:35:30.408Z,16.36
2018-09-15T20:38:01.740Z,16.31
2018-09-15T20:40:32.724Z,16.27
2018-09-15T20:43:04.061Z,16.23
2018-09-15T20:45:34.992Z,16.15
2018-09-15T20:48:05.897Z,16.10
2018-09-15T20:50:36.585Z,16.06
2018-09-15T20:53:07.893Z,16.03
2018-09-15T20:55:38.617Z,16.00
2018-09-15T20:58:09.529Z,15.95
2018-09-15T21:00:40.342Z,15.89
2018-09-15T21:03:11.805Z,15.87
2018-09-15T21:05:42.618Z,15.83
2018-09-15T21:08:13.518Z,15.80
2018-09-15T21:10:44.785Z,15.77
2018-09-15T21:13:15.888Z,15.75
2018-09-15T21:15:46.787Z,15.66
2018-09-15T21:18:17.623Z,15.66
2018-09-15T21:20:48.708Z,15.54
2018-09-15T21:23:20.218Z,15.48
2018-09-15T21:25:50.848Z,15.41
2018-09-15T21:28:21.638Z,15.37
2018-09-15T21:30:52.416Z,15.35
2018-09-15T21:33:23.821Z,15.33
2018-09-15T21:35:54.590Z,15.28
2018-09-15T21:38:25.680Z,15.29
2018-09-15T21:40:56.448Z,15.29
2018-09-15T21:43:27.846Z,15.23
2018-09-15T21:45:58.647Z,15.18
2018-09-15T21:48:29.685Z,15.12
2018-09-15T21:51:00.460Z,15.03
2018-09-15T21:53:31.782Z,15.00
2018-09-15T21:56:02.514Z,14.97
2018-09-15T21:58:33.446Z,14.91
2018-09-15T22:01:08.485Z,14.91
2018-09-15T22:03:43.702Z,14.91
2018-09-15T22:06:13.605Z,14.89
2018-09-15T22:08:43.377Z,14.86
2018-09-15T22:11:13.347Z,14.82
2018-09-15T22:13:43.345Z,14.72
2018-09-15T22:16:13.110Z,14.70
2018-09-15T22:18:43.568Z,14.66
2018-09-15T22:21:13.377Z,14.68
2018-09-15T22:23:43.882Z,14.67
2018-09-15T22:26:14.741Z,14.67
2018-09-15T22:28:45.977Z,14.68
2018-09-15T22:31:16.163Z,14.68
2018-09-15T22:33:47.224Z,14.68
2018-09-15T22:36:17.713Z,14.67
2018-09-15T22:38:48.644Z,14.67
2018-09-15T22:41:19.430Z,14.64
2018-09-15T22:43:49.941Z,14.64
2018-09-15T22:46:21.174Z,14.63
2018-09-15T22:48:52.601Z,14.61
2018-09-15T22:51:22.465Z,14.58
2018-09-15T22:53:53.921Z,14.55
2018-09-15T22:56:24.667Z,14.53
2018-09-15T22:58:55.516Z,14.48
2018-09-15T23:01:26.380Z,14.44
2018-09-15T23:04:02.705Z,14.39
2018-09-15T23:06:32.624Z,14.36
2018-09-15T23:09:02.496Z,14.34
2018-09-15T23:11:32.368Z,14.30
2018-09-15T23:14:02.482Z,14.29
2018-09-15T23:16:32.508Z,14.26
2018-09-15T23:19:03.909Z,14.24
2018-09-15T23:21:34.709Z,14.23
2018-09-15T23:24:05.518Z,14.20
2018-09-15T23:26:36.970Z,14.19
2018-09-15T23:29:07.862Z,14.14
2018-09-15T23:31:38.377Z,14.08
2018-09-15T23:34:15.058Z,14.11
2018-09-15T23:36:45.700Z,14.10
2018-09-15T23:39:15.444Z,14.10
2018-09-15T23:41:45.300Z,14.05
2018-09-15T23:44:15.204Z,14.01
2018-09-15T23:46:45.411Z,14.02
2018-09-15T23:49:15.261Z,13.99
2018-09-15T23:51:45.781Z,13.95
2018-09-15T23:54:16.642Z,13.92
2018-09-15T23:56:47.479Z,13.85
2018-09-15T23:59:19.184Z,13.83
